Arrantzale — EBVT — position and weather

sailwx.info

Track history (hours):
 
Tides and Currents Weather Stations Pressure Air Temp Water Temp Dewpoint Dewpoint Depression Visibility Wind Speed Wind Dir Waves Ship Positions

Arrantzale

Last reported at 2015-Mar-04 17:07 UTC. Time now 2015-Mar-05 02:37 UTC.
Position N 43°23' W 001°48'.

Length 32 m.

Type: Fishing. MMSI: 224065290.

Date/timePositionNaut miles runAvg speedWind from/ knotsBaromVisibWave heightAir tempDewpointWater temp
2015-Mar-04 17:07N 43°23' W 001°48'0 0.0
2015-Mar-04 16:33N 43°23' W 001°48'0 0.0
2015-Mar-04 15:33N 43°23' W 001°48'0 0.0
2015-Mar-04 14:33N 43°23' W 001°48'0 0.0
2015-Mar-04 13:33N 43°23' W 001°48'0 0.0
2015-Mar-04 12:33N 43°23' W 001°48'0 0.0
2015-Mar-04 11:34N 43°23' W 001°48'0 0.0
2015-Mar-04 10:33N 43°23' W 001°48'0 0.0
2015-Mar-04 09:33N 43°23' W 001°48'0 0.0
2015-Mar-04 08:33N 43°23' W 001°48'0 0.0
2015-Mar-04 07:33N 43°23' W 001°48'0 0.0
2015-Mar-04 06:33N 43°23' W 001°48'0 0.0
2015-Mar-04 05:34N 43°23' W 001°48'0 0.1
2015-Mar-04 04:33N 43°23' W 001°47'0 0.0
2015-Mar-04 03:33N 43°23' W 001°48'0 0.0
2015-Mar-04 02:33N 43°23' W 001°48'2 1.6
2015-Mar-04 01:33N 43°25' W 001°49'10 1.9
2015-Mar-03 20:07N 43°32' W 001°59'5 4.8
2015-Mar-03 19:03N 43°28' W 001°54'5 9.3
2015-Mar-03 18:33N 43°26' W 001°49'3 2.5
2015-Mar-03 17:33N 43°23' W 001°48'0 0.1
2015-Mar-03 16:34N 43°23' W 001°47'0 0.0
2015-Mar-03 15:34N 43°23' W 001°47'0 0.0
2015-Mar-03 14:33N 43°23' W 001°47'0 0.0
2015-Mar-03 13:34N 43°23' W 001°47'0 0.0
2015-Mar-03 12:34N 43°23' W 001°47'0 0.0
2015-Mar-03 11:34N 43°23' W 001°47'0 0.0
2015-Mar-03 10:33N 43°23' W 001°47'0 0.0
2015-Mar-03 09:33N 43°23' W 001°47'0 0.0
2015-Mar-03 08:33N 43°23' W 001°47'0 0.0
2015-Mar-03 07:33N 43°23' W 001°47'0 0.0
2015-Mar-03 06:33N 43°23' W 001°47'0 0.0
2015-Mar-03 05:33N 43°23' W 001°47'0 0.0
2015-Mar-03 04:33N 43°23' W 001°47'0 0.1
2015-Mar-03 03:34N 43°23' W 001°48'0 0.0
2015-Mar-03 02:34N 43°23' W 001°48'0 0.0
2015-Mar-03 01:33N 43°23' W 001°48'2 1.6
2015-Mar-03 00:33N 43°25' W 001°47'2 1.6
2015-Mar-02 23:34N 43°23' W 001°48'1 1.0
2015-Mar-02 22:34N 43°24' W 001°47'8 2.1
2015-Mar-02 18:32N 43°32' W 001°51'7 7.2
2015-Mar-02 17:33N 43°25' W 001°47'2 2.2
2015-Mar-02 16:33N 43°23' W 001°47'0 0.0
2015-Mar-02 11:05N 43°23' W 001°47'0 0.0
2015-Mar-02 10:33N 43°23' W 001°47'0 0.0
2015-Mar-02 09:33N 43°23' W 001°47'  
2015-Feb-27 10:29N 43°23' W 001°47'0 0.0
2015-Feb-27 09:33N 43°23' W 001°47'  
2015-Feb-24 10:33N 43°23' W 001°47'0 0.0
2015-Feb-23 12:13N 43°23' W 001°47'0 0.0
2015-Feb-23 11:33N 43°23' W 001°47'0 0.0
2015-Feb-23 10:34N 43°23' W 001°47'0 0.0
2015-Feb-23 09:33N 43°23' W 001°47'0 0.0
2015-Feb-23 08:34N 43°23' W 001°47'  
Track history (hours):
 
Tides and Currents Weather Stations Pressure Air Temp Water Temp Dewpoint Dewpoint Depression Visibility Wind Speed Wind Dir Waves Ship Positions

Arrantzale

Last reported at 2015-Mar-04 17:07 UTC. Time now 2015-Mar-05 02:37 UTC.
Position N 43°23' W 001°48'.

Length 32 m.

Type: Fishing. MMSI: 224065290.

Date/timePositionNaut miles runAvg speedWind from/ knotsBaromVisibWave heightAir tempDewpointWater temp
2015-Mar-04 17:07N 43°23' W 001°48'0 0.0
2015-Mar-04 16:33N 43°23' W 001°48'0 0.0
2015-Mar-04 15:33N 43°23' W 001°48'0 0.0
2015-Mar-04 14:33N 43°23' W 001°48'0 0.0
2015-Mar-04 13:33N 43°23' W 001°48'0 0.0
2015-Mar-04 12:33N 43°23' W 001°48'0 0.0
2015-Mar-04 11:34N 43°23' W 001°48'0 0.0
2015-Mar-04 10:33N 43°23' W 001°48'0 0.0
2015-Mar-04 09:33N 43°23' W 001°48'0 0.0
2015-Mar-04 08:33N 43°23' W 001°48'0 0.0
2015-Mar-04 07:33N 43°23' W 001°48'0 0.0
2015-Mar-04 06:33N 43°23' W 001°48'0 0.0
2015-Mar-04 05:34N 43°23' W 001°48'0 0.1
2015-Mar-04 04:33N 43°23' W 001°47'0 0.0
2015-Mar-04 03:33N 43°23' W 001°48'0 0.0
2015-Mar-04 02:33N 43°23' W 001°48'2 1.6
2015-Mar-04 01:33N 43°25' W 001°49'10 1.9
2015-Mar-03 20:07N 43°32' W 001°59'5 4.8
2015-Mar-03 19:03N 43°28' W 001°54'5 9.3
2015-Mar-03 18:33N 43°26' W 001°49'3 2.5
2015-Mar-03 17:33N 43°23' W 001°48'0 0.1
2015-Mar-03 16:34N 43°23' W 001°47'0 0.0
2015-Mar-03 15:34N 43°23' W 001°47'0 0.0
2015-Mar-03 14:33N 43°23' W 001°47'0 0.0
2015-Mar-03 13:34N 43°23' W 001°47'0 0.0
2015-Mar-03 12:34N 43°23' W 001°47'0 0.0
2015-Mar-03 11:34N 43°23' W 001°47'0 0.0
2015-Mar-03 10:33N 43°23' W 001°47'0 0.0
2015-Mar-03 09:33N 43°23' W 001°47'0 0.0
2015-Mar-03 08:33N 43°23' W 001°47'0 0.0
2015-Mar-03 07:33N 43°23' W 001°47'0 0.0
2015-Mar-03 06:33N 43°23' W 001°47'0 0.0
2015-Mar-03 05:33N 43°23' W 001°47'0 0.0
2015-Mar-03 04:33N 43°23' W 001°47'0 0.1
2015-Mar-03 03:34N 43°23' W 001°48'0 0.0
2015-Mar-03 02:34N 43°23' W 001°48'0 0.0
2015-Mar-03 01:33N 43°23' W 001°48'2 1.6
2015-Mar-03 00:33N 43°25' W 001°47'2 1.6
2015-Mar-02 23:34N 43°23' W 001°48'1 1.0
2015-Mar-02 22:34N 43°24' W 001°47'8 2.1
2015-Mar-02 18:32N 43°32' W 001°51'7 7.2
2015-Mar-02 17:33N 43°25' W 001°47'2 2.2
2015-Mar-02 16:33N 43°23' W 001°47'0 0.0
2015-Mar-02 11:05N 43°23' W 001°47'0 0.0
2015-Mar-02 10:33N 43°23' W 001°47'0 0.0
2015-Mar-02 09:33N 43°23' W 001°47'  
2015-Feb-27 10:29N 43°23' W 001°47'0 0.0
2015-Feb-27 09:33N 43°23' W 001°47'  
2015-Feb-24 10:33N 43°23' W 001°47'0 0.0
2015-Feb-23 12:13N 43°23' W 001°47'0 0.0
2015-Feb-23 11:33N 43°23' W 001°47'0 0.0
2015-Feb-23 10:34N 43°23' W 001°47'0 0.0
2015-Feb-23 09:33N 43°23' W 001°47'0 0.0
2015-Feb-23 08:34N 43°23' W 001°47'  

Dump ship's entire track history